LFMTLFMK

Guest
Details From LFMT - Montpellier/Mediterranee
To LFMK - Salvaza
Flight Number -
Tags generated
Created
Modified
Stats Distance 76 nm / 141 km
Max Altitude 5,700 ft / 1,737 m
Waypoints 3
Social Downloads 0
Likes 0
Share VATSIM

Download

Looking for another format? Having issues loading an existing format? Contact us
Advertisement - Login to hide

Notes

Basic altitude profile: - Ascent Rate: 2500ft/min - Ascent Speed: 250kts - Cruise Altitude: 35000ft - Cruise Speed: 420kts - Descent Rate: 1500ft/min - Descent Speed: 250kts Options: - Use NATs: yes - Use PACOTS: yes - Use low airways: yes - Use high airways: yes

Route

LFMT LAPRO LFMK

ID Type Via Altitude Latitude Longitude Leg Dist Tot Dist Heading (true) Name
O LFMT APT - 0 ft / 0 m 43.57626˚ 3.96326˚ - 0 nm - Montpellier/Mediterranee
LAPRO FIX - 5,700 ft / 1,737 m 43.41667˚ 2.85750˚ 49 nm 49 nm 259° / 258° -
O LFMK APT - 0 ft / 0 m 43.21612˚ 2.30550˚ 26 nm 76 nm 244° / 243° Salvaza

Altitude Profile

Advertisement - Login to hide

LFMT

Details ICAO LFMT (MPL)
Name Montpellier/Mediterranee
Region France
Timezone Europe/Paris (UTC+1.0)
Stats Elevation 16 ft / 5 m (AMSL)
Location 43.576262° 3.963261°
Runways 2
Magnetic Variation 1.247° E

METAR

LFMT 131700Z AUTO 27003KT 9999 BKN047 OVC056 09/02 Q1018 TEMPO BKN014

Decode

TAF

TAF LFMT 131400Z 1315/1415 VRB05KT CAVOK TEMPO 1318/1409 BKN014 TEMPO 1322/1403 -RA

Decode

Departure Runways

ID Width Length Bearing (true) Bearing (mag) Surface Threshold Offset Overrun Length
13L 164 ft / 50 m 8,525 ft / 2,598 m 124.78° 123.53° Asphalt 0 ft / 0 m 0 ft / 0 m
13R 98 ft / 30 m 3,611 ft / 1,101 m 124.80° 123.55° Asphalt 328 ft / 100 m 0 ft / 0 m
31L 98 ft / 30 m 3,611 ft / 1,101 m 304.81° 303.56° Asphalt 0 ft / 0 m 0 ft / 0 m
31R 164 ft / 50 m 8,525 ft / 2,598 m 304.80° 303.55° Asphalt 0 ft / 0 m 0 ft / 0 m

LFMK

Details ICAO LFMK (CCF)
Name Salvaza
Region France
Timezone Europe/Paris (UTC+1.0)
Stats Elevation 433 ft / 132 m (AMSL)
Location 43.216122° 2.305496°
Runways 1
Magnetic Variation 0.835° E

METAR

LFMK 131700Z AUTO 08003KT 060V120 CAVOK 07/03 Q1017 NOSIG

Decode

TAF

TAF LFMK 131400Z 1315/1415 VRB03KT 9999 BKN025 TEMPO 1319/1405 6000 RA BKN010 BECMG 1400/1402 27015KT

Decode

Destination Runways

ID Width Length Bearing (true) Bearing (mag) Surface Threshold Offset Overrun Length
10 148 ft / 45 m 6,869 ft / 2,094 m 96.20° 95.36° Asphalt 479 ft / 146 m 0 ft / 0 m
28 148 ft / 45 m 6,869 ft / 2,094 m 276.22° 275.38° Asphalt 492 ft / 150 m 0 ft / 0 m

Approach Navaids

Runway Type Ident Frequency Range Bearing (true) Bearing (mag) Slope Elevation
10 Localiser CS 111.10 MHz 27 nm / 50 km 96.29° 95.45° - 433 ft / 132 m (AMSL)
10 Glidescope CS 111.10 MHz 27 nm / 50 km 96.29° 95.45° 3.00° 433 ft / 132 m (AMSL)
10 DME CS 111.10 MHz 27 nm / 50 km - - - 433 ft / 132 m (AMSL)